createdAt,value
2018-09-19T00:01:01.416Z,11.50
2018-09-19T00:03:30.136Z,11.27
2018-09-19T00:05:59.033Z,11.20
2018-09-19T00:08:28.229Z,10.70
2018-09-19T00:10:57.579Z,11.77
2018-09-19T00:13:26.332Z,11.50
2018-09-19T00:15:55.321Z,12.23
2018-09-19T00:18:23.902Z,12.93
2018-09-19T00:20:52.475Z,12.70
2018-09-19T00:23:21.090Z,11.97
2018-09-19T00:25:55.336Z,12.67
2018-09-19T00:28:24.021Z,12.23
2018-09-19T00:30:52.744Z,12.20
2018-09-19T00:33:21.601Z,11.40
2018-09-19T00:35:50.384Z,11.33
2018-09-19T00:38:19.104Z,11.77
2018-09-19T00:40:47.844Z,11.13
2018-09-19T00:43:16.573Z,10.70
2018-09-19T00:45:45.190Z,10.70
2018-09-19T00:48:13.936Z,11.20
2018-09-19T00:50:42.694Z,10.17
2018-09-19T00:53:11.910Z,8.97
2018-09-19T00:55:40.653Z,9.90
2018-09-19T00:58:09.315Z,10.70
2018-09-19T01:00:37.991Z,11.63
2018-09-19T01:03:06.636Z,10.50
2018-09-19T01:05:35.398Z,10.10
2018-09-19T01:08:04.208Z,9.80
2018-09-19T01:10:32.976Z,8.90
2018-09-19T01:13:01.745Z,8.83
2018-09-19T01:15:31.041Z,8.93
2018-09-19T01:17:59.701Z,9.40
2018-09-19T01:20:28.300Z,20.97
2018-09-19T01:22:56.870Z,10.40
2018-09-19T01:25:25.560Z,10.83
2018-09-19T01:27:54.221Z,11.23
2018-09-19T01:30:22.955Z,11.00
2018-09-19T01:32:52.357Z,10.13
2018-09-19T01:35:21.591Z,9.00
2018-09-19T01:37:50.376Z,10.23
2018-09-19T01:40:19.176Z,13.77
2018-09-19T01:42:47.889Z,13.20
2018-09-19T01:45:16.596Z,18.27
2018-09-19T01:47:45.227Z,13.47
2018-09-19T01:50:14.352Z,16.90
2018-09-19T01:52:43.138Z,12.63
2018-09-19T01:55:11.877Z,12.87
2018-09-19T01:57:40.676Z,13.87
2018-09-19T02:00:09.335Z,14.70
2018-09-19T02:02:38.104Z,13.90
2018-09-19T02:05:07.113Z,11.93
2018-09-19T02:07:36.219Z,11.67
2018-09-19T02:10:05.037Z,11.17
2018-09-19T02:12:33.852Z,12.57
2018-09-19T02:15:02.748Z,11.60
2018-09-19T02:17:32.390Z,11.90
2018-09-19T02:20:01.031Z,11.23
2018-09-19T02:22:29.638Z,12.00
2018-09-19T02:24:58.305Z,13.97
2018-09-19T02:27:27.015Z,10.70
2018-09-19T02:29:55.733Z,12.90
2018-09-19T02:32:24.413Z,11.77
2018-09-19T02:34:53.121Z,10.00
2018-09-19T02:37:21.832Z,10.13
2018-09-19T02:39:50.545Z,10.07
2018-09-19T02:42:19.244Z,10.73
2018-09-19T02:44:47.912Z,12.70
2018-09-19T02:47:16.555Z,11.87
2018-09-19T02:49:45.272Z,11.27
2018-09-19T02:52:13.969Z,12.20
2018-09-19T02:54:42.561Z,12.67
2018-09-19T02:57:11.146Z,11.30
2018-09-19T02:59:39.773Z,11.23
2018-09-19T03:02:08.359Z,13.23
2018-09-19T03:04:37.848Z,10.40
2018-09-19T03:07:06.442Z,35.13
2018-09-19T03:09:35.034Z,14.87
2018-09-19T03:12:03.991Z,17.77
2018-09-19T03:14:32.588Z,43.40
2018-09-19T03:17:01.243Z,25.33
2018-09-19T03:19:29.804Z,12.53
2018-09-19T03:21:58.351Z,12.00
2018-09-19T03:24:27.412Z,12.67
2018-09-19T03:26:56.118Z,12.40
2018-09-19T03:29:24.824Z,19.17
2018-09-19T03:31:53.538Z,16.73
2018-09-19T03:34:22.177Z,17.53
2018-09-19T03:36:50.868Z,19.97
2018-09-19T03:39:19.575Z,18.80
2018-09-19T03:41:48.896Z,15.90
2018-09-19T03:44:17.564Z,18.93
2018-09-19T03:46:46.261Z,19.67
2018-09-19T03:49:14.986Z,16.60
2018-09-19T03:51:44.325Z,13.53
2018-09-19T03:54:13.009Z,16.30
2018-09-19T03:56:41.708Z,18.53
2018-09-19T03:59:10.368Z,13.77
2018-09-19T04:01:39.350Z,16.03
2018-09-19T04:04:08.010Z,15.37
2018-09-19T04:06:36.682Z,12.50
2018-09-19T04:09:10.366Z,15.70
2018-09-19T04:11:39.341Z,14.03
2018-09-19T04:14:08.916Z,13.17
2018-09-19T04:16:37.858Z,14.63
2018-09-19T04:19:06.557Z,13.50
2018-09-19T04:21:40.184Z,15.37
2018-09-19T04:24:08.935Z,14.90
2018-09-19T04:26:37.527Z,13.57
2018-09-19T04:29:06.266Z,13.73
2018-09-19T04:31:34.838Z,14.77
2018-09-19T04:34:03.561Z,15.17
2018-09-19T04:36:32.335Z,14.83
2018-09-19T04:39:01.061Z,13.67
2018-09-19T04:41:29.836Z,14.13
2018-09-19T04:43:58.434Z,15.37
2018-09-19T04:46:27.073Z,11.23
2018-09-19T04:48:56.267Z,13.30
2018-09-19T04:51:25.163Z,12.30
2018-09-19T04:53:54.185Z,13.30
2018-09-19T04:56:22.911Z,12.30
2018-09-19T04:58:53.397Z,11.50
2018-09-19T05:01:22.213Z,11.57
2018-09-19T05:03:50.996Z,12.33
2018-09-19T05:06:19.760Z,11.10
2018-09-19T05:08:48.546Z,11.00
2018-09-19T05:11:17.414Z,15.70
2018-09-19T05:13:46.343Z,12.30
2018-09-19T05:16:15.118Z,12.50
2018-09-19T05:18:43.873Z,11.13
2018-09-19T05:21:12.671Z,11.67
2018-09-19T05:23:42.067Z,13.53
2018-09-19T05:26:10.806Z,13.10
2018-09-19T05:28:39.452Z,12.80
2018-09-19T05:31:08.213Z,11.53
2018-09-19T05:33:36.824Z,11.40
2018-09-19T05:36:05.517Z,12.53
2018-09-19T05:38:34.146Z,40.83
2018-09-19T05:41:03.230Z,13.73
2018-09-19T05:43:31.912Z,11.83
2018-09-19T05:46:00.710Z,15.23
2018-09-19T05:48:29.456Z,12.10
2018-09-19T05:50:59.139Z,11.50
2018-09-19T05:53:28.093Z,10.17
2018-09-19T05:55:56.792Z,9.87
2018-09-19T05:58:25.847Z,9.80
2018-09-19T06:00:54.738Z,10.80
2018-09-19T06:03:23.536Z,11.80
2018-09-19T06:05:52.281Z,10.63
2018-09-19T06:08:20.963Z,10.73
2018-09-19T06:10:50.581Z,11.23
2018-09-19T06:13:19.240Z,11.53
2018-09-19T06:15:48.394Z,11.57
2018-09-19T06:18:17.240Z,11.43
2018-09-19T06:20:46.127Z,11.97
2018-09-19T06:23:14.893Z,11.63
2018-09-19T06:25:43.628Z,11.67
2018-09-19T06:28:12.354Z,11.40
2018-09-19T06:30:41.326Z,11.10
2018-09-19T06:33:10.219Z,9.50
2018-09-19T06:35:38.776Z,10.13
2018-09-19T06:38:07.504Z,9.67
2018-09-19T06:40:36.341Z,11.63
2018-09-19T06:43:05.257Z,11.50
2018-09-19T06:45:33.960Z,11.57
2018-09-19T06:48:02.579Z,12.40
2018-09-19T06:50:31.219Z,10.90
2018-09-19T06:52:59.901Z,20.03
2018-09-19T06:55:28.673Z,29.20
2018-09-19T06:57:58.041Z,23.33
2018-09-19T07:00:26.741Z,19.00
2018-09-19T07:02:55.441Z,15.80
2018-09-19T07:05:24.149Z,14.63
2018-09-19T07:07:52.866Z,12.18
2018-09-19T07:10:21.648Z,11.45
2018-09-19T07:12:50.281Z,11.80
2018-09-19T07:15:18.891Z,13.03
2018-09-19T07:17:47.481Z,12.03
2018-09-19T07:20:16.103Z,12.43
2018-09-19T07:22:44.699Z,13.05
2018-09-19T07:25:13.419Z,13.35
2018-09-19T07:27:42.316Z,13.68
2018-09-19T07:30:11.346Z,13.70
2018-09-19T07:32:39.937Z,14.20
2018-09-19T07:35:08.551Z,13.35
2018-09-19T07:37:37.195Z,14.45
2018-09-19T07:40:05.891Z,14.85
2018-09-19T07:42:34.496Z,14.53
2018-09-19T07:45:03.230Z,14.43
2018-09-19T07:47:31.925Z,14.87
2018-09-19T07:50:01.170Z,15.00
2018-09-19T07:52:29.871Z,14.55
2018-09-19T07:54:58.574Z,15.80
2018-09-19T07:57:27.291Z,14.43
2018-09-19T07:59:55.994Z,14.30
2018-09-19T08:02:24.678Z,13.85
2018-09-19T08:04:53.860Z,13.88
2018-09-19T08:07:22.450Z,13.32
2018-09-19T08:09:51.085Z,14.28
2018-09-19T08:12:19.660Z,13.95
2018-09-19T08:14:48.840Z,13.40
2018-09-19T08:17:17.404Z,13.30
2018-09-19T08:19:46.025Z,12.05
2018-09-19T08:22:14.694Z,12.75
2018-09-19T08:24:43.373Z,12.43
2018-09-19T08:27:12.100Z,11.20
2018-09-19T08:29:40.769Z,11.38
2018-09-19T08:32:09.439Z,11.75
2018-09-19T08:34:38.126Z,10.25
2018-09-19T08:37:06.805Z,9.80
2018-09-19T08:39:42.256Z,9.63
2018-09-19T08:42:11.073Z,9.75
2018-09-19T08:44:39.896Z,8.48
2018-09-19T08:47:08.627Z,8.58
2018-09-19T08:49:37.294Z,7.08
2018-09-19T08:52:06.019Z,7.85
2018-09-19T08:54:34.730Z,8.30
2018-09-19T08:57:03.502Z,7.40
2018-09-19T08:59:32.140Z,7.35
2018-09-19T09:02:01.667Z,7.85
2018-09-19T09:07:33.244Z,7.33
2018-09-19T09:10:01.927Z,6.58
2018-09-19T09:12:31.263Z,6.33
2018-09-19T09:14:59.949Z,6.83
2018-09-19T09:17:28.597Z,6.65
2018-09-19T09:19:57.285Z,7.25
2018-09-19T09:22:25.994Z,6.62
2018-09-19T09:24:54.659Z,6.03
2018-09-19T09:27:23.494Z,6.20
2018-09-19T09:29:52.260Z,5.90
2018-09-19T09:32:21.050Z,6.30
2018-09-19T09:34:49.920Z,5.95
2018-09-19T09:37:18.748Z,5.30
2018-09-19T09:39:47.563Z,5.30
2018-09-19T09:42:16.312Z,5.37
2018-09-19T09:44:45.081Z,5.50
2018-09-19T09:47:14.067Z,5.08
2018-09-19T09:49:42.642Z,4.33
2018-09-19T09:52:11.243Z,4.67
2018-09-19T09:54:39.895Z,5.37
2018-09-19T09:57:08.568Z,4.65
2018-09-19T09:59:37.447Z,5.10
2018-09-19T10:02:06.168Z,4.72
2018-09-19T10:04:34.851Z,5.28
2018-09-19T10:07:03.593Z,4.83
2018-09-19T10:09:32.280Z,4.60
2018-09-19T10:12:00.955Z,5.10
2018-09-19T10:14:29.623Z,4.30
2018-09-19T10:16:58.225Z,4.53
2018-09-19T10:19:26.815Z,4.60
2018-09-19T10:21:55.555Z,4.90
2018-09-19T10:24:24.165Z,4.80
2018-09-19T10:26:52.760Z,4.35
2018-09-19T10:29:21.358Z,4.37
2018-09-19T10:31:49.980Z,4.67
2018-09-19T10:34:18.555Z,6.50
2018-09-19T10:36:47.181Z,5.03
2018-09-19T10:39:15.784Z,4.30
2018-09-19T10:41:44.352Z,4.10
2018-09-19T10:44:13.024Z,4.37
2018-09-19T10:46:41.653Z,4.30
2018-09-19T10:49:10.351Z,4.60
2018-09-19T10:51:39.010Z,4.30
2018-09-19T10:54:08.356Z,4.47
2018-09-19T10:56:37.043Z,4.50
2018-09-19T10:59:05.845Z,4.08
2018-09-19T11:01:34.528Z,4.30
2018-09-19T11:04:03.252Z,4.42
2018-09-19T11:06:31.941Z,3.80
2018-09-19T11:09:00.549Z,4.00
2018-09-19T11:11:29.119Z,3.67
2018-09-19T11:13:57.732Z,3.90
2018-09-19T11:16:26.440Z,3.67
2018-09-19T11:18:55.140Z,3.67
2018-09-19T11:21:23.801Z,3.22
2018-09-19T11:23:52.662Z,3.47
2018-09-19T11:26:21.561Z,3.37
2018-09-19T11:28:50.392Z,3.22
2018-09-19T11:31:19.074Z,3.60
2018-09-19T11:33:47.718Z,3.40
2018-09-19T11:36:16.412Z,3.40
2018-09-19T11:38:45.036Z,3.50
2018-09-19T11:41:13.655Z,3.75
2018-09-19T11:43:42.245Z,3.50
2018-09-19T11:46:11.010Z,3.55
2018-09-19T11:48:39.726Z,3.30
2018-09-19T11:51:08.499Z,3.60
2018-09-19T11:53:37.196Z,3.30
2018-09-19T11:56:05.975Z,3.47
2018-09-19T11:58:34.670Z,3.00
2018-09-19T12:01:03.325Z,3.40
2018-09-19T12:03:31.967Z,3.30
2018-09-19T12:06:00.817Z,3.45
2018-09-19T12:08:29.689Z,3.60
2018-09-19T12:10:58.415Z,3.22
2018-09-19T12:13:27.148Z,3.47
2018-09-19T12:15:56.016Z,3.33
2018-09-19T12:18:24.860Z,3.22
2018-09-19T12:20:53.648Z,3.20
2018-09-19T12:23:22.249Z,3.40
2018-09-19T12:25:50.892Z,3.10
2018-09-19T12:28:19.611Z,2.80
2018-09-19T12:30:48.564Z,3.17
2018-09-19T12:33:17.374Z,3.45
2018-09-19T12:35:46.193Z,3.72
2018-09-19T12:38:15.931Z,3.35
2018-09-19T12:40:44.637Z,3.08
2018-09-19T12:43:13.390Z,3.10
2018-09-19T12:45:42.119Z,3.37
2018-09-19T12:48:10.898Z,3.10
2018-09-19T12:50:39.541Z,3.30
2018-09-19T12:53:08.193Z,3.25
2018-09-19T12:55:36.905Z,2.80
2018-09-19T12:58:11.210Z,3.70
2018-09-19T13:00:40.038Z,3.15
2018-09-19T13:03:08.755Z,3.98
2018-09-19T13:05:37.931Z,3.77
2018-09-19T13:08:08.483Z,3.58
2018-09-19T13:10:37.211Z,3.80
2018-09-19T13:13:05.943Z,4.00
2018-09-19T13:15:34.662Z,4.17
2018-09-19T13:18:03.653Z,4.35
2018-09-19T13:20:32.435Z,3.80
2018-09-19T13:23:01.438Z,4.33
2018-09-19T13:25:30.208Z,4.05
2018-09-19T13:27:58.960Z,4.00
2018-09-19T13:30:27.735Z,4.12
2018-09-19T13:32:56.464Z,4.37
2018-09-19T13:35:25.272Z,4.50
2018-09-19T13:37:54.016Z,5.17
2018-09-19T13:40:22.736Z,4.65
2018-09-19T13:42:52.631Z,5.00
2018-09-19T13:45:22.244Z,4.85
2018-09-19T13:47:56.542Z,4.87
2018-09-19T13:50:37.845Z,5.05
2018-09-19T13:53:06.833Z,5.10
2018-09-19T13:55:35.594Z,5.25
2018-09-19T13:58:04.299Z,4.92
2018-09-19T14:00:33.076Z,5.00
2018-09-19T14:03:01.766Z,5.10
2018-09-19T14:05:30.531Z,5.22
2018-09-19T14:07:59.385Z,5.37
2018-09-19T14:10:28.123Z,4.97
2018-09-19T14:12:56.943Z,5.00
2018-09-19T14:15:26.018Z,7.87
2018-09-19T14:17:54.749Z,4.80
2018-09-19T14:20:23.471Z,5.95
2018-09-19T14:22:52.343Z,6.75
2018-09-19T14:25:21.156Z,4.80
2018-09-19T14:27:49.969Z,4.58
2018-09-19T14:30:18.744Z,4.80
2018-09-19T14:32:48.291Z,4.60
2018-09-19T14:35:17.088Z,4.53
2018-09-19T14:37:46.659Z,4.10
2018-09-19T14:40:15.839Z,5.37
2018-09-19T14:42:44.571Z,5.00
2018-09-19T14:45:13.372Z,5.17
2018-09-19T14:47:42.156Z,5.53
2018-09-19T14:50:10.886Z,5.10
2018-09-19T14:52:40.330Z,5.00
2018-09-19T14:55:09.177Z,4.72
2018-09-19T14:57:38.020Z,5.47
2018-09-19T15:00:07.538Z,5.50
2018-09-19T15:02:41.907Z,4.72
2018-09-19T15:05:12.019Z,4.78
2018-09-19T15:07:46.117Z,4.15
2018-09-19T15:10:14.777Z,3.60
2018-09-19T15:12:43.541Z,3.02
2018-09-19T15:15:12.116Z,2.87
2018-09-19T15:17:46.367Z,2.77
2018-09-19T15:20:15.102Z,3.08
2018-09-19T15:22:43.751Z,2.37
2018-09-19T15:25:12.464Z,2.30
2018-09-19T15:27:41.122Z,2.77
2018-09-19T15:30:09.805Z,2.70
2018-09-19T15:32:39.317Z,2.93
2018-09-19T15:35:07.981Z,3.00
2018-09-19T15:37:36.751Z,3.60
2018-09-19T15:40:06.013Z,4.17
2018-09-19T15:42:35.823Z,6.87
2018-09-19T15:45:04.652Z,6.63
2018-09-19T15:56:34.148Z,6.40
2018-09-19T15:59:03.052Z,7.60
2018-09-19T16:01:31.908Z,5.90
2018-09-19T16:04:00.611Z,5.70
2018-09-19T16:06:30.317Z,6.47
2018-09-19T16:08:58.946Z,5.90
2018-09-19T16:11:27.626Z,6.53
2018-09-19T16:13:56.257Z,7.70
2018-09-19T16:16:25.189Z,7.17
2018-09-19T16:18:54.445Z,7.27
2018-09-19T16:21:24.196Z,7.10
2018-09-19T16:23:53.158Z,7.40
2018-09-19T16:26:21.916Z,7.13
2018-09-19T16:28:50.987Z,7.63
2018-09-19T16:31:19.815Z,7.50
2018-09-19T16:33:48.506Z,6.90
2018-09-19T16:36:17.254Z,7.57
2018-09-19T16:38:45.914Z,8.67
2018-09-19T16:41:14.714Z,7.87
2018-09-19T16:43:43.741Z,8.63
2018-09-19T16:46:12.597Z,8.43
2018-09-19T16:48:41.356Z,9.37
2018-09-19T16:51:10.236Z,10.43
2018-09-19T16:53:39.117Z,11.20
2018-09-19T16:56:07.929Z,9.40
2018-09-19T16:58:37.046Z,9.97
2018-09-19T17:01:05.911Z,12.67
2018-09-19T17:03:35.256Z,10.93
2018-09-19T17:06:05.969Z,11.93
2018-09-19T17:08:35.245Z,10.53
2018-09-19T17:11:05.509Z,10.50
2018-09-19T17:13:34.644Z,10.73
2018-09-19T17:16:03.939Z,10.93
2018-09-19T17:18:33.077Z,10.17
2018-09-19T17:21:05.762Z,10.47
2018-09-19T17:23:35.011Z,9.57
2018-09-19T17:26:04.426Z,9.47
2018-09-19T17:28:34.584Z,10.77
2018-09-19T17:31:04.861Z,9.43
2018-09-19T17:33:33.916Z,9.73
2018-09-19T17:36:05.301Z,13.97
2018-09-19T17:38:34.076Z,11.20
2018-09-19T17:41:02.894Z,11.43
2018-09-19T17:43:31.875Z,9.93
2018-09-19T17:46:00.887Z,11.10
2018-09-19T17:48:29.922Z,12.33
2018-09-19T17:50:59.491Z,12.97
2018-09-19T17:53:30.095Z,11.70
2018-09-19T17:55:59.346Z,11.13
2018-09-19T17:58:28.997Z,10.73
2018-09-19T18:01:00.343Z,11.07
2018-09-19T18:03:30.652Z,11.00
2018-09-19T18:05:59.541Z,11.50
2018-09-19T18:08:28.483Z,10.83
2018-09-19T18:10:57.197Z,9.30
2018-09-19T18:13:25.921Z,7.83
2018-09-19T18:15:54.809Z,11.23
2018-09-19T18:18:25.981Z,11.00
2018-09-19T18:20:55.985Z,8.93
2018-09-19T18:23:24.709Z,7.90
2018-09-19T18:25:53.445Z,8.03
2018-09-19T18:28:22.189Z,9.30
2018-09-19T18:30:51.229Z,10.03
2018-09-19T18:33:20.793Z,10.30
2018-09-19T18:35:49.708Z,10.37
2018-09-19T18:38:18.543Z,10.60
2018-09-19T18:40:47.389Z,11.03
2018-09-19T18:43:16.295Z,11.40
2018-09-19T18:45:45.195Z,11.03
2018-09-19T18:48:14.854Z,10.67
2018-09-19T18:50:43.936Z,9.57
2018-09-19T18:53:12.861Z,10.43
2018-09-19T18:55:41.968Z,11.37
2018-09-19T18:58:10.760Z,10.17
2018-09-19T19:00:39.650Z,10.83
2018-09-19T19:03:08.356Z,10.53
2018-09-19T19:05:37.156Z,10.53
2018-09-19T19:08:06.332Z,10.43
2018-09-19T19:10:35.721Z,10.60
2018-09-19T19:13:04.560Z,10.97
2018-09-19T19:15:33.389Z,11.73
2018-09-19T19:18:02.882Z,12.73
2018-09-19T19:20:33.429Z,12.60
2018-09-19T19:23:02.313Z,11.20
2018-09-19T19:25:31.065Z,10.03
2018-09-19T19:27:59.932Z,9.50
2018-09-19T19:30:28.890Z,10.27
2018-09-19T19:32:57.750Z,9.20
2018-09-19T19:35:27.617Z,9.20
2018-09-19T19:37:56.724Z,7.20
2018-09-19T19:40:25.986Z,7.77
2018-09-19T19:42:54.820Z,8.00
2018-09-19T19:45:23.588Z,7.60
2018-09-19T19:47:52.379Z,7.60
2018-09-19T19:50:21.136Z,7.13
2018-09-19T19:52:49.928Z,8.30
2018-09-19T19:55:18.696Z,8.00
2018-09-19T19:57:47.474Z,6.80
2018-09-19T20:00:16.276Z,6.53
2018-09-19T20:02:45.042Z,6.50
2018-09-19T20:05:13.763Z,7.27
2018-09-19T20:07:42.567Z,7.90
2018-09-19T20:10:11.848Z,6.83
2018-09-19T20:12:40.663Z,7.20
2018-09-19T20:15:09.476Z,7.77
2018-09-19T20:17:38.356Z,7.50
2018-09-19T20:20:07.656Z,8.30
2018-09-19T20:22:36.506Z,8.43
2018-09-19T20:25:05.417Z,10.10
2018-09-19T20:27:34.326Z,9.73
2018-09-19T20:30:04.056Z,10.67
2018-09-19T20:32:32.894Z,10.37
2018-09-19T20:35:01.797Z,10.10
2018-09-19T20:37:30.551Z,9.97
2018-09-19T20:39:59.303Z,9.53
2018-09-19T20:42:28.201Z,10.17
2018-09-19T20:44:56.876Z,10.37
2018-09-19T20:47:25.701Z,10.80
2018-09-19T20:49:54.431Z,11.33
2018-09-19T20:52:23.217Z,10.80
2018-09-19T20:54:52.005Z,10.77
2018-09-19T20:57:20.757Z,11.10
2018-09-19T20:59:49.603Z,10.37
2018-09-19T21:02:18.319Z,9.67
2018-09-19T21:04:47.079Z,8.77
2018-09-19T21:07:15.927Z,9.20
2018-09-19T21:09:45.155Z,8.37
2018-09-19T21:12:13.922Z,9.80
2018-09-19T21:14:42.909Z,9.47
2018-09-19T21:17:11.683Z,9.37
2018-09-19T21:19:40.375Z,9.80
2018-09-19T21:22:09.240Z,9.27
2018-09-19T21:24:37.975Z,10.77
2018-09-19T21:27:06.740Z,10.73
2018-09-19T21:29:35.401Z,11.43
2018-09-19T21:32:04.102Z,11.47
2018-09-19T21:34:32.859Z,11.27
2018-09-19T21:37:01.676Z,11.43
2018-09-19T21:39:30.666Z,11.70
2018-09-19T21:41:59.377Z,11.00
2018-09-19T21:44:28.038Z,10.87
2018-09-19T21:46:56.708Z,11.70
2018-09-19T21:49:25.399Z,11.33
2018-09-19T21:51:54.061Z,11.37
2018-09-19T21:54:22.763Z,10.63
2018-09-19T21:56:51.510Z,10.03
2018-09-19T21:59:20.221Z,9.57
2018-09-19T22:01:53.504Z,10.67
2018-09-19T22:04:22.256Z,10.87
2018-09-19T22:06:50.966Z,10.90
2018-09-19T22:09:19.611Z,10.70
2018-09-19T22:11:48.271Z,9.43
2018-09-19T22:14:16.913Z,8.60
2018-09-19T22:16:45.868Z,8.30
2018-09-19T22:19:14.536Z,8.80
2018-09-19T22:21:43.213Z,8.80
2018-09-19T22:24:11.888Z,9.27
2018-09-19T22:26:40.536Z,8.80
2018-09-19T22:29:09.189Z,9.13
2018-09-19T22:31:37.893Z,9.97
2018-09-19T22:34:06.662Z,8.97
2018-09-19T22:36:36.283Z,10.40
2018-09-19T22:39:07.447Z,8.40
2018-09-19T22:41:36.997Z,8.60
2018-09-19T22:44:05.896Z,8.13
2018-09-19T22:46:34.669Z,8.77
2018-09-19T22:49:03.383Z,10.13
2018-09-19T22:51:32.561Z,9.40
2018-09-19T22:54:01.302Z,9.27
2018-09-19T22:56:29.981Z,9.27
2018-09-19T22:59:03.783Z,10.10
2018-09-19T23:01:33.078Z,9.77
2018-09-19T23:04:02.806Z,10.57
2018-09-19T23:06:31.640Z,10.20
2018-09-19T23:09:00.284Z,11.23
2018-09-19T23:11:28.966Z,10.63
2018-09-19T23:13:57.614Z,10.87
2018-09-19T23:16:26.280Z,10.97
2018-09-19T23:18:54.999Z,11.13
2018-09-19T23:21:23.675Z,10.97
2018-09-19T23:23:52.395Z,11.10
2018-09-19T23:26:21.035Z,11.63
2018-09-19T23:28:49.648Z,11.17
2018-09-19T23:31:18.249Z,11.63
2018-09-19T23:33:46.888Z,10.97
2018-09-19T23:36:15.560Z,11.63
2018-09-19T23:38:44.305Z,11.53
2018-09-19T23:41:13.028Z,12.83
2018-09-19T23:43:41.669Z,12.60
2018-09-19T23:46:10.568Z,12.03
2018-09-19T23:48:46.055Z,13.33
2018-09-19T23:51:14.704Z,12.47
2018-09-19T23:53:43.356Z,13.10
2018-09-19T23:56:12.116Z,13.60
2018-09-19T23:58:40.769Z,13.67
